Time;durP1;ratioP1;P1;durP2;ratioP2;P2;SDS_P1;SDS_P2;PMS_P1;PMS_P2;Temp;Humidity;BMP_temperature;BMP_pressure;BME280_temperature;BME280_humidity;BME280_pressure;Samples;Min_cycle;Max_cycle;Signal;HPM_P1;HPM_P2
2022/04/09 00:07:59;;;;;;;2.90;0.82;;;10.00;65.30;;;;;;20722437;28;20026;-84
2022/04/09 00:17:59;;;;;;;5.03;0.67;;;10.00;65.30;;;;;;20721941;28;20643;-79
2022/04/09 00:28:00;;;;;;;1.88;0.70;;;10.00;65.20;;;;;;20702797;28;20317;-82
2022/04/09 00:38:00;;;;;;;2.33;0.70;;;10.00;65.20;;;;;;20719465;28;20038;-79
2022/04/09 00:48:01;;;;;;;1.65;0.73;;;10.00;65.20;;;;;;20703466;28;20033;-80
2022/04/09 00:58:02;;;;;;;2.20;0.70;;;9.90;65.10;;;;;;20719120;28;20042;-80
2022/04/09 01:08:03;;;;;;;5.25;1.13;;;9.90;65.10;;;;;;20716994;28;20116;-79
2022/04/09 01:18:04;;;;;;;3.22;0.80;;;9.90;65.00;;;;;;20717429;28;20037;-79
2022/04/09 01:28:06;;;;;;;3.88;0.77;;;9.90;65.10;;;;;;20717627;28;20034;-81
2022/04/09 01:38:07;;;;;;;2.83;1.08;;;9.90;65.10;;;;;;20715960;28;20472;-82
2022/04/09 01:48:08;;;;;;;3.17;0.45;;;9.90;65.70;;;;;;20715222;28;20061;-80
2022/04/09 01:58:08;;;;;;;0.65;0.50;;;9.90;65.10;;;;;;20698837;28;20104;-79
2022/04/09 02:08:13;;;;;;;1.60;0.60;;;9.90;65.10;;;;;;20716498;28;20634;-78
2022/04/09 02:18:14;;;;;;;0.70;0.50;;;9.90;65.10;;;;;;20714390;28;20128;-78
2022/04/09 02:28:14;;;;;;;0.90;0.57;;;9.90;65.10;;;;;;21161246;22;20451;-80
2022/04/09 02:38:15;;;;;;;1.13;0.68;;;9.80;65.10;;;;;;20795114;28;20479;-79
2022/04/09 02:48:17;;;;;;;1.48;0.57;;;9.90;65.10;;;;;;20788236;28;20037;-79
2022/04/09 02:58:19;;;;;;;2.80;0.80;;;9.80;65.10;;;;;;20794351;28;20041;-80
2022/04/09 03:08:23;;;;;;;2.88;1.83;;;9.80;65.10;;;;;;20793697;28;20036;-79
2022/04/09 03:18:23;;;;;;;0.83;0.50;;;9.90;65.10;;;;;;20790756;28;20041;-78
2022/04/09 03:28:26;;;;;;;2.72;0.55;;;9.80;65.10;;;;;;20792612;28;20295;-79
2022/04/09 03:38:27;;;;;;;2.47;0.68;;;9.80;65.00;;;;;;20790764;28;20467;-79
2022/04/09 03:48:30;;;;;;;3.67;0.75;;;9.80;65.10;;;;;;20807427;28;20032;-79
2022/04/09 03:58:31;;;;;;;0.93;0.50;;;9.80;65.10;;;;;;20788960;28;20033;-78
2022/04/09 04:08:32;;;;;;;1.13;0.50;;;9.80;65.10;;;;;;20803310;28;20086;-81
2022/04/09 04:18:32;;;;;;;3.17;0.90;;;9.80;65.00;;;;;;20787700;28;21014;-80
2022/04/09 04:28:35;;;;;;;1.10;0.75;;;9.80;65.10;;;;;;20803840;28;20124;-79
2022/04/09 04:38:36;;;;;;;3.83;1.85;;;9.80;65.10;;;;;;20769983;28;20180;-78
2022/04/09 04:48:37;;;;;;;1.20;0.52;;;9.80;65.10;;;;;;20801495;28;20424;-79
2022/04/09 04:58:41;;;;;;;2.38;0.80;;;9.70;65.00;;;;;;20799943;28;20057;-80
2022/04/09 05:08:41;;;;;;;3.63;0.57;;;9.70;65.00;;;;;;20783092;28;20452;-79
2022/04/09 05:18:46;;;;;;;2.15;0.60;;;9.70;65.00;;;;;;20784120;28;20033;-77
2022/04/09 05:28:53;;;;;;;1.48;0.80;;;9.70;65.00;;;;;;20781337;28;20037;-81
2022/04/09 05:38:53;;;;;;;1.00;0.77;;;9.70;65.00;;;;;;20789206;28;20422;-78
2022/04/09 05:48:54;;;;;;;2.28;0.70;;;9.70;65.00;;;;;;20753242;28;20172;-76
2022/04/09 05:58:55;;;;;;;2.95;0.85;;;9.70;65.00;;;;;;20739521;28;20034;-79
2022/04/09 06:08:56;;;;;;;2.03;0.88;;;9.70;65.00;;;;;;20767239;28;20426;-78
2022/04/09 06:19:05;;;;;;;3.78;0.88;;;9.60;65.00;;;;;;20772885;28;20065;-78
2022/04/09 06:29:06;;;;;;;4.72;1.38;;;9.60;65.00;;;;;;20789451;28;20124;-85
2022/04/09 06:39:07;;;;;;;1.45;0.82;;;9.60;65.00;;;;;;20806536;28;20125;-82
2022/04/09 06:49:12;;;;;;;3.13;0.57;;;9.60;65.00;;;;;;20822756;28;20025;-81
2022/04/09 06:59:18;;;;;;;5.35;0.98;;;9.60;65.00;;;;;;20824784;28;20049;-82
2022/04/09 07:09:20;;;;;;;2.97;1.65;;;9.60;65.10;;;;;;20806576;28;20033;-77
2022/04/09 07:19:20;;;;;;;2.95;0.88;;;9.60;65.00;;;;;;20808505;28;20029;-84
2022/04/09 07:29:21;;;;;;;2.50;0.70;;;9.60;65.10;;;;;;20800916;28;20505;-82
2022/04/09 07:39:21;;;;;;;3.38;0.70;;;9.60;65.10;;;;;;20700617;28;20038;-84
2022/04/09 07:49:22;;;;;;;4.82;0.95;;;9.60;65.10;;;;;;20729293;28;20049;-77
2022/04/09 07:59:23;;;;;;;4.70;1.63;;;9.60;65.10;;;;;;20733302;28;20084;-74
2022/04/09 08:09:24;;;;;;;3.63;0.90;;;9.60;65.10;;;;;;20701440;28;20080;-78
2022/04/09 08:19:25;;;;;;;5.60;1.33;;;9.60;65.00;;;;;;20768947;28;20048;-81
2022/04/09 08:29:25;;;;;;;4.25;0.65;;;9.70;65.10;;;;;;20714376;28;20052;-76
2022/04/09 08:39:26;;;;;;;3.95;1.08;;;9.60;65.00;;;;;;20809067;28;20029;-77
2022/04/09 08:49:26;;;;;;;5.03;0.82;;;9.70;65.10;;;;;;20771467;28;20037;-77
2022/04/09 08:59:27;;;;;;;4.22;0.65;;;9.70;64.90;;;;;;20696206;28;20045;-79
2022/04/09 09:09:29;;;;;;;4.72;1.17;;;9.60;64.80;;;;;;20696025;28;20048;-80
2022/04/09 09:19:45;;;;;;;1.98;0.70;;;9.70;64.80;;;;;;20712061;28;20041;-79
2022/04/09 09:29:48;;;;;;;5.65;0.80;;;9.70;64.60;;;;;;20754744;28;20678;-81
2022/04/09 09:39:48;;;;;;;3.42;0.93;;;9.60;64.40;;;;;;20760765;28;20049;-78
2022/04/09 09:49:53;;;;;;;4.30;0.65;;;9.60;64.40;;;;;;20695752;28;20124;-78
2022/04/09 10:00:02;;;;;;;1.92;0.50;;;9.60;64.40;;;;;;20708484;28;20486;-79
2022/04/09 10:10:07;;;;;;;1.10;0.55;;;9.60;64.40;;;;;;20712295;28;20048;-80
2022/04/09 10:20:08;;;;;;;3.78;0.60;;;9.60;64.30;;;;;;20712843;28;20476;-81
2022/04/09 10:30:16;;;;;;;2.60;0.60;;;9.60;64.20;;;;;;20678622;28;20106;-80
2022/04/09 10:40:17;;;;;;;2.65;0.80;;;9.60;64.10;;;;;;20724748;28;20030;-78
2022/04/09 10:50:17;;;;;;;3.70;0.80;;;9.60;64.00;;;;;;20713985;28;20042;-75
2022/04/09 11:00:22;;;;;;;6.78;0.77;;;9.60;63.90;;;;;;20795503;28;20371;-77
2022/04/09 11:10:23;;;;;;;3.97;0.40;;;9.60;63.40;;;;;;20798454;28;20428;-79
2022/04/09 11:20:23;;;;;;;3.00;0.60;;;9.60;63.20;;;;;;20785111;28;20743;-78
2022/04/09 11:30:24;;;;;;;0.93;0.40;;;9.60;63.00;;;;;;20799851;28;20506;-80
2022/04/09 11:40:25;;;;;;;1.85;0.52;;;9.60;63.30;;;;;;20815305;28;20122;-79
2022/04/09 11:50:32;;;;;;;1.13;0.40;;;9.60;63.70;;;;;;20815445;28;20116;-79
2022/04/09 12:00:36;;;;;;;0.70;0.50;;;9.60;64.00;;;;;;20799544;28;20848;-79
2022/04/09 12:10:58;;;;;;;0.75;0.40;;;9.50;64.40;;;;;;20797580;28;20037;-82
2022/04/09 12:21:04;;;;;;;1.52;0.35;;;9.60;64.70;;;;;;20783002;28;20042;-80
2022/04/09 12:31:07;;;;;;;0.37;0.17;;;9.60;64.90;;;;;;20781215;28;20056;-82
2022/04/09 12:41:08;;;;;;;2.80;0.47;;;9.60;65.10;;;;;;20797085;28;20077;-80
2022/04/09 12:51:13;;;;;;;3.15;0.55;;;9.60;65.40;;;;;;20784870;28;20132;-77
2022/04/09 13:01:14;;;;;;;2.85;0.40;;;9.60;65.40;;;;;;20788263;28;20048;-78
2022/04/09 13:11:14;;;;;;;1.15;0.20;;;9.50;65.40;;;;;;20774728;28;20044;-78
2022/04/09 13:21:15;;;;;;;2.50;0.22;;;9.60;65.50;;;;;;20815847;28;20045;-78
2022/04/09 13:31:16;;;;;;;0.90;0.20;;;9.60;65.50;;;;;;20806273;28;20144;-78
2022/04/09 13:41:22;;;;;;;3.40;0.43;;;9.60;65.50;;;;;;20772984;28;20053;-77
2022/04/09 13:51:22;;;;;;;1.17;0.45;;;9.60;65.50;;;;;;20786765;28;20033;-78
2022/04/09 14:01:23;;;;;;;1.40;0.40;;;9.60;65.40;;;;;;20798077;28;20091;-77
2022/04/09 14:11:23;;;;;;;1.67;0.30;;;9.60;65.30;;;;;;20803879;28;20125;-75
2022/04/09 14:21:28;;;;;;;1.00;0.30;;;9.70;65.20;;;;;;20819152;28;20121;-76
2022/04/09 14:31:31;;;;;;;0.95;0.73;;;9.80;65.00;;;;;;20787395;28;20048;-76
2022/04/09 14:41:35;;;;;;;1.98;0.50;;;9.80;64.80;;;;;;20789279;28;20034;-75
2022/04/09 14:51:36;;;;;;;51.10;5.95;;;9.80;64.50;;;;;;20801366;28;20040;-75
2022/04/09 15:01:37;;;;;;;55.28;9.35;;;9.90;64.50;;;;;;20713558;28;20076;-77
2022/04/09 15:11:38;;;;;;;13.50;3.58;;;10.10;64.40;;;;;;20719998;28;20046;-78
2022/04/09 15:21:39;;;;;;;15.73;3.25;;;10.30;64.30;;;;;;20720749;28;20448;-73
2022/04/09 15:31:39;;;;;;;23.70;4.70;;;10.40;64.30;;;;;;20721961;28;20088;-74
2022/04/09 15:41:40;;;;;;;20.93;3.03;;;10.40;64.20;;;;;;20731334;28;20064;-77
2022/04/09 15:51:41;;;;;;;12.15;1.55;;;10.60;64.10;;;;;;20698326;28;20289;-81
2022/04/09 16:01:42;;;;;;;2.65;0.70;;;10.60;63.80;;;;;;20793030;28;20034;-77
2022/04/09 16:11:43;;;;;;;0.90;0.55;;;10.60;63.90;;;;;;20782092;28;20049;-79
2022/04/09 16:21:43;;;;;;;1.55;0.50;;;10.50;63.90;;;;;;20814606;28;20038;-79
2022/04/09 16:31:45;;;;;;;0.88;0.47;;;10.50;63.80;;;;;;20802019;28;20035;-76
2022/04/09 16:41:46;;;;;;;0.43;0.20;;;10.40;63.60;;;;;;20783154;28;20103;-73
2022/04/09 16:51:47;;;;;;;1.95;0.60;;;10.40;63.50;;;;;;20786126;28;20038;-76
2022/04/09 17:01:47;;;;;;;0.52;0.40;;;10.40;63.40;;;;;;20771750;28;20041;-75
2022/04/09 17:11:48;;;;;;;0.88;0.45;;;10.40;63.20;;;;;;20748695;28;20084;-75
2022/04/09 17:21:48;;;;;;;4.55;0.75;;;10.30;63.10;;;;;;20788288;28;20037;-77
2022/04/09 17:31:49;;;;;;;1.85;0.55;;;10.30;63.10;;;;;;20774358;28;20049;-75
2022/04/09 17:41:50;;;;;;;0.35;0.28;;;10.30;63.10;;;;;;20805610;28;20045;-77
2022/04/09 17:51:50;;;;;;;2.13;0.40;;;10.30;63.10;;;;;;20804114;28;20043;-76
2022/04/09 18:01:51;;;;;;;3.92;1.17;;;10.30;63.10;;;;;;20787045;28;20080;-77
2022/04/09 18:11:51;;;;;;;1.02;0.40;;;10.20;63.10;;;;;;20771254;28;20041;-77
2022/04/09 18:21:52;;;;;;;3.53;0.60;;;10.20;63.10;;;;;;20812762;28;20041;-77
2022/04/09 18:31:52;;;;;;;0.50;0.35;;;10.20;63.10;;;;;;20799140;28;20091;-79
2022/04/09 18:41:53;;;;;;;1.30;0.50;;;10.20;63.30;;;;;;20801053;28;20069;-78
2022/04/09 18:51:54;;;;;;;1.52;0.68;;;10.20;63.40;;;;;;20796922;28;20037;-78
2022/04/09 19:01:55;;;;;;;0.82;0.80;;;10.10;63.50;;;;;;20742297;28;20042;-78
2022/04/09 19:11:55;;;;;;;0.63;0.40;;;10.20;63.70;;;;;;20746256;28;20110;-77
2022/04/09 19:21:56;;;;;;;1.58;0.60;;;10.10;63.70;;;;;;20758101;28;20492;-79
2022/04/09 19:31:56;;;;;;;3.35;0.95;;;10.10;63.80;;;;;;20800490;28;20097;-78
2022/04/09 19:41:57;;;;;;;1.27;0.50;;;10.10;63.90;;;;;;20787600;28;20468;-75
2022/04/09 19:51:58;;;;;;;0.90;0.60;;;10.10;64.00;;;;;;20816419;28;20480;-75
2022/04/09 20:01:58;;;;;;;2.38;0.88;;;10.00;63.90;;;;;;20815849;28;20038;-76
2022/04/09 20:11:59;;;;;;;1.17;0.40;;;10.10;64.00;;;;;;20800137;28;20073;-75
2022/04/09 20:22:00;;;;;;;2.22;0.57;;;10.00;63.90;;;;;;20798748;28;20065;-77
2022/04/09 20:32:01;;;;;;;0.75;0.63;;;10.00;64.00;;;;;;20814672;28;20033;-76
2022/04/09 20:42:01;;;;;;;3.25;0.45;;;10.10;64.10;;;;;;20797224;28;20048;-75
2022/04/09 20:52:02;;;;;;;0.93;0.30;;;10.10;64.10;;;;;;20796188;28;20424;-75
2022/04/09 21:02:03;;;;;;;0.73;0.38;;;10.00;64.10;;;;;;20795454;28;20299;-75
2022/04/09 21:12:04;;;;;;;0.85;0.40;;;10.00;64.10;;;;;;20794974;28;20442;-75
2022/04/09 21:22:05;;;;;;;1.65;0.50;;;10.00;64.10;;;;;;20777590;28;20053;-76
2022/04/09 21:32:06;;;;;;;4.40;0.52;;;10.00;64.10;;;;;;20792612;28;20061;-76
2022/04/09 21:42:07;;;;;;;5.00;0.75;;;10.00;64.10;;;;;;20792966;28;20492;-76
2022/04/09 21:52:07;;;;;;;1.83;0.82;;;10.00;64.10;;;;;;20775348;28;20040;-75
2022/04/09 22:02:08;;;;;;;0.57;0.43;;;10.00;64.10;;;;;;20790730;28;20045;-74
2022/04/09 22:12:12;;;;;;;1.75;0.40;;;9.90;64.00;;;;;;20791868;28;20060;-76
2022/04/09 22:22:13;;;;;;;1.50;0.98;;;9.90;64.00;;;;;;20790691;28;20065;-75
2022/04/09 22:32:14;;;;;;;1.48;0.52;;;9.90;64.00;;;;;;20806637;28;20060;-76
2022/04/09 22:42:14;;;;;;;0.88;0.40;;;9.90;63.90;;;;;;20789426;28;20476;-75
2022/04/09 22:52:15;;;;;;;1.15;0.50;;;9.90;63.90;;;;;;20789814;28;20038;-75
2022/04/09 23:02:15;;;;;;;1.52;0.50;;;9.80;64.50;;;;;;20793417;28;20068;-74
2022/04/09 23:12:16;;;;;;;1.38;0.75;;;9.90;63.90;;;;;;20820791;28;20033;-76
2022/04/09 23:22:16;;;;;;;1.40;0.40;;;9.80;63.90;;;;;;20818847;28;20295;-76
2022/04/09 23:32:17;;;;;;;0.75;0.40;;;9.90;63.90;;;;;;20785886;28;20037;-76
2022/04/09 23:42:18;;;;;;;1.00;0.50;;;9.80;63.90;;;;;;20817453;28;20045;-75
2022/04/09 23:52:18;;;;;;;1.00;0.45;;;9.80;63.90;;;;;;20816369;28;20095;-75
